Ridgway, Illinois
Current Conditions -  °F | °C
As of 7:35 AM on Friday 19 Dec 2014 (Local Time) from KHSB Reporting Station
Overcast Overcast  
Wind Chill: 32°   Ceiling: 4000
Heat Index: 32°   Visibility: 7mi
Dew Point: 28°   Wind: 3mph
Humidity: 85%   Direction: 40°NE
Pressure: 30.33"   Gusts: NA
Location:  37.8°N, 88.26°W
Report Text: KHSB 191335Z AUTO 04003KT 7SM OVC040 00/M02 A3033 RMK AO2 T10021025
Loading
Personal Weather Stations






























Interactive Weather Map New forecast layout! Learn more

10-Day Weather Forecast

Advertisements
Track Severe Weather on mobile